Time;durP1;ratioP1;P1;durP2;ratioP2;P2;SDS_P1;SDS_P2;PMS_P1;PMS_P2;Temp;Humidity;BMP_temperature;BMP_pressure;BME280_temperature;BME280_humidity;BME280_pressure;Samples;Min_cycle;Max_cycle;Signal;HPM_P1;HPM_P2
2020/12/08 00:00:09;;;;;;;37.75;21.75;;;6.00;99.90;;;;;;5134630;27;20023;-66
2020/12/08 00:02:34;;;;;;;38.08;21.92;;;6.00;99.90;;;;;;5134477;27;20148;-64
2020/12/08 00:05:00;;;;;;;35.83;21.15;;;6.00;99.90;;;;;;5134828;27;20102;-66
2020/12/08 00:07:26;;;;;;;37.47;21.45;;;6.00;99.90;;;;;;5134714;27;20110;-64
2020/12/08 00:13:14;;;;;;;40.35;22.55;;;6.10;99.90;;;;;;5134300;27;20026;-63
2020/12/08 00:15:40;;;;;;;39.80;22.02;;;6.10;99.90;;;;;;5134370;27;20043;-67
2020/12/08 00:18:05;;;;;;;41.95;22.98;;;6.10;99.90;;;;;;5134691;27;20027;-65
2020/12/08 00:20:32;;;;;;;41.25;23.65;;;6.10;99.90;;;;;;5134555;27;20026;-67
2020/12/08 00:22:58;;;;;;;43.55;24.52;;;6.10;99.90;;;;;;5134454;27;20114;-66
2020/12/08 00:25:23;;;;;;;37.85;23.38;;;6.10;99.90;;;;;;5134415;27;20476;-66
2020/12/08 00:27:49;;;;;;;41.78;24.45;;;6.10;99.90;;;;;;5134053;27;20023;-66
2020/12/08 00:30:15;;;;;;;40.67;23.20;;;6.00;99.90;;;;;;5134221;27;20019;-65
2020/12/08 00:32:42;;;;;;;41.65;23.80;;;6.00;99.90;;;;;;5134325;27;20102;-65
2020/12/08 00:35:09;;;;;;;40.08;23.42;;;6.00;99.90;;;;;;5134149;27;20022;-64
2020/12/08 00:37:36;;;;;;;39.10;23.55;;;6.00;99.90;;;;;;5134212;27;20019;-65
2020/12/08 00:43:23;;;;;;;43.67;23.95;;;5.90;99.90;;;;;;5134071;27;20084;-65
2020/12/08 00:45:49;;;;;;;40.40;23.20;;;5.90;99.90;;;;;;5133954;27;20027;-65
2020/12/08 00:48:14;;;;;;;47.08;25.35;;;5.90;99.90;;;;;;5133674;27;20031;-64
2020/12/08 00:50:40;;;;;;;46.58;24.85;;;5.90;99.90;;;;;;5133859;27;20107;-65
2020/12/08 00:53:05;;;;;;;46.22;25.00;;;5.80;99.90;;;;;;5133830;27;20049;-66
2020/12/08 00:55:31;;;;;;;43.45;24.63;;;5.80;99.90;;;;;;5133724;27;20034;-65
2020/12/08 00:57:57;;;;;;;46.05;25.77;;;5.80;99.90;;;;;;5133587;27;20399;-66
2020/12/08 01:00:22;;;;;;;43.90;24.58;;;5.80;99.90;;;;;;5133489;27;20097;-65
2020/12/08 01:02:48;;;;;;;44.65;24.90;;;5.70;99.90;;;;;;5133483;27;20031;-65
2020/12/08 01:05:14;;;;;;;41.50;24.30;;;5.70;99.90;;;;;;5133470;27;20019;-66
2020/12/08 01:07:40;;;;;;;44.97;24.50;;;5.70;99.90;;;;;;5133820;27;20079;-67
2020/12/08 01:13:27;;;;;;;41.72;23.75;;;5.60;99.90;;;;;;5133328;27;20030;-66
2020/12/08 01:15:53;;;;;;;42.55;24.20;;;5.60;99.90;;;;;;5133391;27;20027;-65
2020/12/08 01:18:19;;;;;;;41.92;23.80;;;5.50;99.90;;;;;;5133525;27;20019;-66
2020/12/08 01:20:45;;;;;;;46.90;24.80;;;5.50;99.90;;;;;;5133539;27;20034;-65
2020/12/08 01:23:11;;;;;;;49.42;25.80;;;5.40;99.90;;;;;;5133611;27;20023;-65
2020/12/08 01:25:37;;;;;;;49.33;26.95;;;5.40;99.90;;;;;;5133546;27;20482;-66
2020/12/08 01:28:04;;;;;;;51.60;27.05;;;5.40;99.90;;;;;;5133240;27;20027;-68
2020/12/08 01:30:30;;;;;;;46.72;25.02;;;5.50;99.90;;;;;;5133354;27;20029;-67
2020/12/08 01:32:55;;;;;;;44.95;26.05;;;5.50;99.90;;;;;;5133482;27;20426;-69
2020/12/08 01:35:21;;;;;;;45.05;25.55;;;5.50;99.90;;;;;;5133283;27;20106;-68
2020/12/08 01:37:47;;;;;;;38.83;22.60;;;5.60;99.90;;;;;;5133323;27;20069;-65
2020/12/08 01:43:50;;;;;;;39.15;21.77;;;5.60;99.90;;;;;;5133343;28;20501;-66
2020/12/08 01:46:22;;;;;;;40.08;23.27;;;5.70;99.90;;;;;;5133397;27;20028;-66
2020/12/08 01:48:48;;;;;;;38.00;22.48;;;5.70;99.90;;;;;;5132972;27;20030;-64
2020/12/08 01:51:16;;;;;;;38.88;23.45;;;5.70;99.90;;;;;;5133413;27;20046;-66
2020/12/08 01:53:43;;;;;;;37.25;22.88;;;5.70;99.90;;;;;;5132960;27;20023;-65
2020/12/08 01:56:10;;;;;;;40.55;24.17;;;5.70;99.90;;;;;;5133007;27;20115;-66
2020/12/08 01:58:36;;;;;;;43.10;24.88;;;5.80;99.90;;;;;;5132974;27;20546;-66
2020/12/08 02:01:02;;;;;;;52.08;27.92;;;5.80;99.90;;;;;;5132920;27;20116;-67
2020/12/08 02:03:28;;;;;;;53.25;27.63;;;5.80;99.90;;;;;;5135788;27;20035;-67
2020/12/08 02:05:54;;;;;;;53.97;28.92;;;5.90;99.90;;;;;;5137016;27;20023;-68
2020/12/08 02:08:35;;;;;;;52.50;27.50;;;5.90;99.90;;;;;;5136854;27;20034;-67
2020/12/08 02:11:02;;;;;;;50.53;27.63;;;5.90;99.90;;;;;;5136897;27;20050;-62
2020/12/08 02:13:28;;;;;;;56.08;30.13;;;6.00;99.90;;;;;;5137058;27;20023;-68
2020/12/08 02:15:53;;;;;;;54.67;28.63;;;6.00;99.90;;;;;;5136716;27;20027;-65
2020/12/08 02:18:20;;;;;;;50.80;28.42;;;6.00;99.90;;;;;;5136577;27;20155;-65
2020/12/08 02:20:46;;;;;;;48.17;28.25;;;6.10;99.90;;;;;;5136588;27;20069;-67
2020/12/08 02:23:12;;;;;;;49.47;27.17;;;6.10;99.90;;;;;;5136453;27;20424;-66
2020/12/08 02:28:59;;;;;;;48.92;26.02;;;6.20;99.90;;;;;;5136532;27;20030;-66
2020/12/08 02:31:24;;;;;;;44.90;25.75;;;6.20;99.90;;;;;;5136703;27;20031;-66
2020/12/08 02:33:50;;;;;;;46.78;26.40;;;6.20;99.90;;;;;;5136643;27;20061;-65
2020/12/08 02:36:16;;;;;;;45.85;26.65;;;6.20;99.90;;;;;;5136368;27;20047;-66
2020/12/08 02:38:41;;;;;;;43.72;25.02;;;6.20;99.90;;;;;;5136137;27;20037;-66
2020/12/08 02:41:07;;;;;;;45.63;26.25;;;6.20;99.90;;;;;;5136392;27;20060;-67
2020/12/08 02:43:33;;;;;;;43.45;25.33;;;6.20;99.90;;;;;;5136371;27;20027;-67
2020/12/08 02:45:59;;;;;;;43.00;25.52;;;6.10;99.90;;;;;;5136519;27;20019;-67
2020/12/08 02:48:25;;;;;;;48.10;27.13;;;6.20;99.90;;;;;;5136384;27;20383;-67
2020/12/08 02:50:50;;;;;;;47.35;26.48;;;6.20;99.90;;;;;;5136419;27;20072;-68
2020/12/08 02:53:16;;;;;;;50.05;27.75;;;6.20;99.90;;;;;;5136349;27;20482;-66
2020/12/08 02:59:43;;;;;;;51.40;27.13;;;6.10;99.90;;;;;;5131198;27;20194;-63
2020/12/08 03:02:09;;;;;;;47.03;27.38;;;6.10;99.90;;;;;;5135956;27;20498;-66
2020/12/08 03:04:34;;;;;;;49.08;27.33;;;6.10;99.90;;;;;;5136025;27;20050;-68
2020/12/08 03:07:00;;;;;;;52.90;27.40;;;6.20;99.90;;;;;;5134934;27;20057;-67
2020/12/08 03:09:27;;;;;;;48.33;27.40;;;6.20;99.90;;;;;;5135584;27;20415;-66
2020/12/08 03:11:53;;;;;;;48.72;26.35;;;6.30;99.90;;;;;;5135964;27;20031;-65
2020/12/08 03:14:18;;;;;;;51.53;26.85;;;6.30;99.90;;;;;;5134379;27;20034;-65
2020/12/08 03:16:44;;;;;;;51.15;27.98;;;6.30;99.90;;;;;;5135708;27;20026;-66
2020/12/08 03:19:09;;;;;;;51.42;28.17;;;6.40;99.90;;;;;;5135828;27;20106;-67
2020/12/08 03:21:36;;;;;;;45.28;26.50;;;6.40;99.90;;;;;;5135664;27;20075;-65
2020/12/08 03:24:02;;;;;;;49.55;27.00;;;6.40;99.90;;;;;;5135547;27;20023;-65
2020/12/08 03:26:28;;;;;;;48.85;26.75;;;6.40;99.90;;;;;;5135532;27;20022;-64
2020/12/08 03:28:54;;;;;;;53.53;27.35;;;6.50;99.90;;;;;;5135599;27;20028;-67
2020/12/08 03:31:20;;;;;;;45.03;25.55;;;6.50;99.90;;;;;;5135413;27;20030;-66
2020/12/08 03:33:47;;;;;;;47.33;26.77;;;6.50;99.90;;;;;;5135200;27;20015;-67
2020/12/08 03:36:19;;;;;;;48.25;27.00;;;6.60;99.90;;;;;;5135476;27;20112;-67
2020/12/08 03:38:48;;;;;;;48.85;25.98;;;6.60;99.90;;;;;;5135600;27;20025;-66
2020/12/08 03:44:36;;;;;;;46.88;26.23;;;6.60;99.90;;;;;;5135378;27;20075;-66
2020/12/08 03:47:03;;;;;;;46.88;26.35;;;6.60;99.90;;;;;;5135274;27;20114;-69
2020/12/08 03:49:29;;;;;;;48.47;28.02;;;6.70;99.90;;;;;;5134840;27;20079;-67
2020/12/08 03:51:58;;;;;;;47.28;26.77;;;6.70;99.90;;;;;;5135217;27;20113;-66
2020/12/08 03:54:24;;;;;;;45.80;26.80;;;6.70;99.90;;;;;;5135114;27;20030;-66
2020/12/08 03:56:50;;;;;;;47.55;26.75;;;6.70;99.90;;;;;;5134918;27;20019;-66
2020/12/08 03:59:17;;;;;;;46.08;27.83;;;6.70;99.90;;;;;;5134629;27;20047;-65
2020/12/08 04:01:52;;;;;;;45.83;25.67;;;6.70;99.90;;;;;;5134464;27;20042;-65
2020/12/08 04:04:19;;;;;;;47.78;25.15;;;6.70;99.90;;;;;;5134555;27;20019;-67
2020/12/08 04:06:45;;;;;;;43.42;25.05;;;6.70;99.90;;;;;;5134571;27;20063;-65
2020/12/08 04:09:11;;;;;;;43.60;26.27;;;6.60;99.90;;;;;;5134720;27;20019;-64
2020/12/08 04:11:36;;;;;;;45.95;25.55;;;6.70;99.90;;;;;;5134476;27;20031;-64
2020/12/08 04:14:03;;;;;;;43.50;25.30;;;6.70;99.90;;;;;;5134767;27;20030;-67
2020/12/08 04:16:30;;;;;;;42.45;25.02;;;6.70;99.90;;;;;;5134827;27;20057;-66
2020/12/08 04:18:55;;;;;;;42.17;25.67;;;6.70;99.90;;;;;;5133034;27;20359;-66
2020/12/08 04:21:25;;;;;;;46.83;25.55;;;6.70;99.90;;;;;;5134092;27;20042;-66
2020/12/08 04:23:59;;;;;;;45.72;24.85;;;6.70;99.90;;;;;;5134381;27;20471;-65
2020/12/08 04:29:28;;;;;;;43.28;25.05;;;6.70;99.90;;;;;;5134197;27;19960;-66
2020/12/08 04:31:54;;;;;;;41.10;25.00;;;6.70;99.90;;;;;;5134293;27;20055;-66
2020/12/08 04:34:20;;;;;;;42.53;26.35;;;6.70;99.90;;;;;;5134086;27;20358;-66
2020/12/08 04:36:45;;;;;;;43.60;26.25;;;6.70;99.90;;;;;;5134097;27;20027;-67
2020/12/08 04:39:11;;;;;;;43.58;24.63;;;6.70;99.90;;;;;;5134287;27;20052;-67
2020/12/08 04:44:59;;;;;;;39.17;23.13;;;6.70;99.90;;;;;;5134595;27;20413;-67
2020/12/08 04:47:26;;;;;;;40.72;24.77;;;6.70;99.90;;;;;;5133833;27;20023;-67
2020/12/08 04:49:56;;;;;;;40.70;24.50;;;6.70;99.90;;;;;;5134156;27;20034;-66
2020/12/08 04:52:22;;;;;;;41.00;24.20;;;6.70;99.90;;;;;;5133754;27;20106;-67
2020/12/08 04:54:47;;;;;;;39.78;25.00;;;6.60;99.90;;;;;;5133601;27;20057;-67
2020/12/08 04:57:13;;;;;;;43.33;25.13;;;6.60;99.90;;;;;;5133584;27;20502;-67
2020/12/08 04:59:39;;;;;;;41.42;25.23;;;6.60;99.90;;;;;;5133361;27;20082;-66
2020/12/08 05:02:05;;;;;;;43.30;25.35;;;6.60;99.90;;;;;;5133661;27;20038;-64
2020/12/08 05:04:31;;;;;;;40.28;25.15;;;6.50;99.90;;;;;;5133611;27;20022;-66
2020/12/08 05:07:04;;;;;;;43.67;24.15;;;6.50;99.90;;;;;;5133608;27;20027;-66
2020/12/08 05:09:30;;;;;;;41.83;24.27;;;6.50;99.90;;;;;;5133488;27;20031;-65
2020/12/08 05:15:18;;;;;;;37.97;24.10;;;6.60;99.90;;;;;;5133438;27;20076;-66
2020/12/08 05:17:44;;;;;;;43.22;25.20;;;6.60;99.90;;;;;;5133520;27;20483;-67
2020/12/08 05:20:12;;;;;;;39.05;24.45;;;6.70;99.90;;;;;;5133701;27;20076;-66
2020/12/08 05:22:51;;;;;;;39.38;24.85;;;6.60;99.90;;;;;;5133510;27;20039;-66
2020/12/08 05:25:17;;;;;;;38.63;23.73;;;6.70;99.90;;;;;;5133577;27;20042;-67
2020/12/08 05:27:44;;;;;;;40.30;24.00;;;6.70;99.90;;;;;;5133578;27;20077;-67
2020/12/08 05:30:10;;;;;;;35.88;23.85;;;6.70;99.90;;;;;;5133065;27;20019;-65
2020/12/08 05:32:40;;;;;;;37.10;24.50;;;6.70;99.90;;;;;;5133157;27;20038;-66
2020/12/08 05:35:08;;;;;;;36.95;24.17;;;6.70;99.90;;;;;;5133241;27;20534;-65
2020/12/08 05:37:39;;;;;;;38.55;23.70;;;6.70;99.90;;;;;;5134882;27;20035;-64
2020/12/08 05:40:15;;;;;;;36.55;22.63;;;6.70;99.90;;;;;;5137376;27;20023;-67
2020/12/08 05:42:43;;;;;;;38.10;23.33;;;6.70;99.90;;;;;;5137489;27;20054;-64
2020/12/08 05:45:11;;;;;;;39.75;23.48;;;6.60;99.90;;;;;;5137509;27;20339;-66
2020/12/08 05:47:42;;;;;;;33.60;21.80;;;6.60;99.90;;;;;;5137629;27;20026;-67
2020/12/08 05:50:08;;;;;;;36.05;22.73;;;6.50;99.90;;;;;;5137314;27;20019;-66
2020/12/08 05:52:35;;;;;;;38.70;23.50;;;6.50;99.90;;;;;;5137531;27;20034;-66
2020/12/08 05:55:11;;;;;;;37.08;23.17;;;6.40;99.90;;;;;;5137416;27;20094;-67
2020/12/08 05:57:38;;;;;;;36.90;22.98;;;6.40;99.90;;;;;;5136980;27;20027;-66
2020/12/08 06:00:06;;;;;;;34.22;21.92;;;6.30;99.90;;;;;;5136745;27;20483;-66
2020/12/08 06:02:31;;;;;;;35.05;22.60;;;6.30;99.90;;;;;;5136986;27;20031;-67
2020/12/08 06:04:58;;;;;;;35.78;22.63;;;6.30;99.90;;;;;;5137363;27;20027;-66
2020/12/08 06:07:32;;;;;;;37.45;23.20;;;6.20;99.90;;;;;;5135574;27;20029;-66
2020/12/08 06:10:10;;;;;;;34.67;23.65;;;6.20;99.90;;;;;;5136983;27;20037;-65
2020/12/08 06:12:39;;;;;;;35.22;23.08;;;6.10;99.90;;;;;;5136735;27;20420;-66
2020/12/08 06:15:22;;;;;;;36.95;23.15;;;6.10;99.90;;;;;;5137009;27;20044;-67
2020/12/08 06:17:49;;;;;;;35.17;22.60;;;6.00;99.90;;;;;;5136989;27;20102;-67
2020/12/08 06:20:15;;;;;;;34.35;22.02;;;6.00;99.90;;;;;;5136574;27;20032;-67
2020/12/08 06:22:41;;;;;;;35.75;23.45;;;5.90;99.90;;;;;;5136767;27;20039;-67
2020/12/08 06:25:06;;;;;;;38.30;24.33;;;5.90;99.90;;;;;;5136513;27;20027;-67
2020/12/08 06:27:33;;;;;;;35.53;23.35;;;5.80;99.90;;;;;;5136552;27;20053;-68
2020/12/08 06:29:59;;;;;;;36.03;23.08;;;5.80;99.90;;;;;;5136534;27;20027;-67
2020/12/08 06:32:29;;;;;;;42.38;27.55;;;5.80;99.90;;;;;;5136612;27;20025;-66
2020/12/08 06:35:12;;;;;;;39.47;26.70;;;5.80;99.90;;;;;;5136428;27;20486;-66
2020/12/08 06:37:49;;;;;;;38.28;25.77;;;5.70;99.90;;;;;;5136289;27;20031;-65
2020/12/08 06:40:18;;;;;;;43.25;26.58;;;5.70;99.90;;;;;;5136271;27;20031;-67
2020/12/08 06:42:46;;;;;;;36.80;26.42;;;5.70;99.90;;;;;;5136440;27;20125;-66
2020/12/08 06:45:30;;;;;;;38.72;26.52;;;5.70;99.90;;;;;;5136302;27;20050;-66
2020/12/08 06:47:56;;;;;;;37.53;25.80;;;5.70;99.90;;;;;;5135985;27;20031;-66
2020/12/08 06:50:29;;;;;;;40.38;25.08;;;5.70;99.90;;;;;;5136416;27;20031;-66
2020/12/08 06:52:59;;;;;;;39.20;24.10;;;5.70;99.90;;;;;;5136263;27;20027;-66
2020/12/08 06:55:25;;;;;;;35.45;24.08;;;5.80;99.90;;;;;;5135986;27;20509;-66
2020/12/08 06:57:52;;;;;;;36.85;23.48;;;5.80;99.90;;;;;;5136126;27;20107;-65
2020/12/08 07:00:18;;;;;;;36.40;24.00;;;5.80;99.90;;;;;;5135950;27;20015;-66
2020/12/08 07:02:51;;;;;;;37.47;24.10;;;5.80;99.90;;;;;;5136064;27;20038;-65
2020/12/08 07:05:28;;;;;;;39.50;25.60;;;5.80;99.90;;;;;;5136134;27;20038;-66
2020/12/08 07:07:57;;;;;;;37.13;25.02;;;5.80;99.90;;;;;;5136104;27;20098;-68
2020/12/08 07:10:23;;;;;;;35.83;24.85;;;5.80;99.90;;;;;;5135723;27;20106;-67
2020/12/08 07:16:15;;;;;;;39.65;24.77;;;5.70;99.90;;;;;;5135888;27;20050;-68
2020/12/08 07:18:42;;;;;;;35.65;23.75;;;5.70;99.90;;;;;;5135640;27;20023;-68
2020/12/08 07:21:13;;;;;;;38.40;25.70;;;5.70;99.90;;;;;;5135797;27;20072;-68
2020/12/08 07:23:39;;;;;;;37.95;25.77;;;5.70;99.90;;;;;;5135307;27;20031;-67
2020/12/08 07:26:05;;;;;;;50.22;29.80;;;5.70;99.90;;;;;;5135386;27;20031;-66
2020/12/08 07:28:32;;;;;;;53.67;32.75;;;5.30;99.90;;;;;;5135564;27;20026;-66
2020/12/08 07:30:57;;;;;;;55.80;33.63;;;4.50;99.90;;;;;;5135579;27;20023;-72
2020/12/08 07:33:33;;;;;;;49.00;31.15;;;4.00;99.90;;;;;;5135034;27;20364;-66
2020/12/08 07:35:59;;;;;;;59.85;33.30;;;3.90;99.90;;;;;;5135455;27;20046;-67
2020/12/08 07:38:24;;;;;;;55.97;32.47;;;3.90;99.90;;;;;;5135398;27;20509;-66
2020/12/08 07:40:50;;;;;;;56.92;33.38;;;3.70;99.90;;;;;;5135009;27;20462;-67
2020/12/08 07:43:16;;;;;;;58.30;33.53;;;3.80;99.90;;;;;;5135136;27;20035;-66
2020/12/08 07:45:45;;;;;;;63.55;34.92;;;3.80;99.90;;;;;;5134940;27;20412;-66
2020/12/08 07:48:18;;;;;;;66.93;36.42;;;3.70;99.90;;;;;;5135278;27;20050;-67
2020/12/08 07:50:44;;;;;;;69.03;36.30;;;3.60;99.90;;;;;;5134934;27;20031;-67
2020/12/08 07:53:11;;;;;;;71.57;37.95;;;3.50;99.90;;;;;;5134991;27;20260;-66
2020/12/08 07:55:44;;;;;;;73.55;37.85;;;3.40;99.90;;;;;;5135092;27;20473;-67
2020/12/08 08:02:11;;;;;;;71.68;37.15;;;3.30;99.90;;;;;;5130893;27;20054;-67
2020/12/08 08:04:36;;;;;;;78.07;39.63;;;3.30;99.90;;;;;;5134289;27;20039;-66
2020/12/08 08:07:02;;;;;;;72.15;38.75;;;3.20;99.90;;;;;;5134608;27;20070;-67
2020/12/08 08:09:28;;;;;;;75.90;39.03;;;3.10;99.90;;;;;;5134731;27;20352;-66
2020/12/08 08:11:53;;;;;;;82.60;41.33;;;3.10;99.90;;;;;;5134772;27;20019;-67
2020/12/08 08:14:20;;;;;;;86.13;41.97;;;3.10;99.90;;;;;;5134039;27;20360;-68
2020/12/08 08:16:47;;;;;;;75.10;38.58;;;3.00;99.90;;;;;;5134377;27;20023;-66
2020/12/08 08:19:13;;;;;;;79.82;40.78;;;3.00;99.90;;;;;;5134591;27;20067;-67
2020/12/08 08:21:38;;;;;;;82.05;41.53;;;3.00;99.90;;;;;;5134339;27;20132;-68
2020/12/08 08:24:04;;;;;;;72.50;38.70;;;3.00;99.90;;;;;;5134006;27;20515;-66
2020/12/08 08:26:30;;;;;;;67.47;37.30;;;3.00;99.90;;;;;;5134523;27;20019;-66
2020/12/08 08:28:55;;;;;;;83.70;42.38;;;3.10;99.90;;;;;;5134356;27;20375;-66
2020/12/08 08:31:21;;;;;;;87.13;42.08;;;3.20;99.90;;;;;;5134357;27;20456;-67
2020/12/08 08:33:47;;;;;;;82.43;42.03;;;3.20;99.90;;;;;;5134691;27;20437;-67
2020/12/08 08:36:13;;;;;;;84.70;43.58;;;3.10;99.90;;;;;;5134242;27;20043;-66
2020/12/08 08:38:38;;;;;;;89.95;46.15;;;3.20;99.90;;;;;;5134017;27;20023;-66
2020/12/08 08:47:29;;;;;;;86.15;44.30;;;3.40;99.90;;;;;;5140353;27;20082;-67
2020/12/08 08:49:54;;;;;;;81.15;43.63;;;3.40;99.90;;;;;;5154552;27;20034;-64
2020/12/08 08:52:20;;;;;;;89.53;46.42;;;3.40;99.90;;;;;;5154562;27;20027;-69
2020/12/08 08:54:46;;;;;;;79.47;43.10;;;3.30;99.90;;;;;;5154690;27;20019;-71
2020/12/08 08:57:11;;;;;;;82.13;44.25;;;3.50;99.90;;;;;;5154684;27;20030;-71
2020/12/08 08:59:37;;;;;;;84.28;44.80;;;3.60;99.90;;;;;;5154379;27;20424;-71
2020/12/08 09:02:03;;;;;;;83.25;44.40;;;3.70;99.90;;;;;;5154193;27;20043;-70
2020/12/08 09:04:28;;;;;;;80.10;43.03;;;3.60;99.90;;;;;;5154413;27;20023;-71
2020/12/08 09:06:54;;;;;;;82.65;45.45;;;3.70;99.90;;;;;;5154463;27;20460;-71
2020/12/08 09:09:20;;;;;;;78.45;44.85;;;3.70;99.90;;;;;;5154501;27;20377;-71
2020/12/08 09:11:45;;;;;;;79.32;43.60;;;3.70;99.90;;;;;;5153447;27;20023;-70
2020/12/08 09:14:11;;;;;;;78.75;42.95;;;3.70;99.90;;;;;;5154199;27;20063;-69
2020/12/08 09:16:39;;;;;;;84.53;45.13;;;3.80;99.90;;;;;;5154225;27;20145;-69
2020/12/08 09:19:04;;;;;;;85.13;44.65;;;3.70;99.90;;;;;;5154349;27;20027;-71
2020/12/08 09:21:30;;;;;;;78.07;43.10;;;3.70;99.90;;;;;;5154274;27;20526;-70
2020/12/08 09:23:55;;;;;;;81.90;44.70;;;3.80;99.90;;;;;;5154393;27;20546;-70
2020/12/08 09:26:21;;;;;;;79.57;42.78;;;3.90;99.90;;;;;;5154314;27;20484;-71
2020/12/08 09:32:09;;;;;;;70.47;40.63;;;4.00;99.90;;;;;;5154284;27;20111;-70
2020/12/08 09:34:35;;;;;;;70.10;40.97;;;4.00;99.90;;;;;;5154244;27;20026;-71
2020/12/08 09:37:01;;;;;;;75.32;42.13;;;4.20;99.90;;;;;;5154001;27;20098;-71
2020/12/08 09:39:27;;;;;;;75.68;39.50;;;4.30;99.90;;;;;;5153886;27;20030;-69
2020/12/08 09:41:53;;;;;;;65.40;38.33;;;4.20;99.90;;;;;;5153953;27;20386;-68
2020/12/08 09:44:19;;;;;;;69.88;38.20;;;4.20;99.90;;;;;;5153759;27;20383;-69
2020/12/08 09:46:45;;;;;;;74.22;39.30;;;4.30;99.90;;;;;;5154160;27;20027;-69
2020/12/08 09:49:12;;;;;;;66.78;38.53;;;4.20;99.90;;;;;;5153892;27;20362;-70
2020/12/08 09:51:37;;;;;;;63.60;39.00;;;4.40;99.90;;;;;;5154054;27;20382;-70
2020/12/08 09:54:04;;;;;;;67.70;39.90;;;4.40;99.90;;;;;;5153863;27;20023;-70
2020/12/08 09:56:30;;;;;;;65.43;41.42;;;4.50;99.90;;;;;;5154063;27;20031;-71
2020/12/08 10:02:19;;;;;;;66.75;38.92;;;4.70;99.90;;;;;;5141138;27;20468;-71
2020/12/08 10:04:45;;;;;;;70.80;40.13;;;4.70;99.90;;;;;;5133072;28;20028;-71
2020/12/08 10:07:14;;;;;;;66.55;40.25;;;4.80;99.90;;;;;;5132791;28;20378;-70
2020/12/08 10:09:42;;;;;;;71.38;40.85;;;4.90;99.90;;;;;;5133259;28;20106;-71
2020/12/08 10:12:08;;;;;;;67.88;40.65;;;4.90;99.90;;;;;;5132928;28;20412;-71
2020/12/08 10:14:34;;;;;;;59.50;38.67;;;5.00;99.90;;;;;;5132957;28;20038;-70
2020/12/08 10:17:00;;;;;;;67.20;40.53;;;5.20;99.90;;;;;;5133186;28;20058;-72
2020/12/08 10:19:26;;;;;;;64.63;40.40;;;5.30;99.90;;;;;;5132918;28;20052;-70
2020/12/08 10:21:56;;;;;;;66.80;40.10;;;5.30;99.90;;;;;;5132793;28;20496;-72
2020/12/08 10:24:22;;;;;;;60.67;39.08;;;5.30;99.90;;;;;;5135610;27;20026;-72
2020/12/08 10:26:47;;;;;;;60.60;38.88;;;5.30;99.90;;;;;;5136821;27;20023;-73
2020/12/08 10:32:35;;;;;;;59.05;36.38;;;5.50;99.90;;;;;;5136731;27;20037;-72
2020/12/08 10:35:00;;;;;;;58.95;36.20;;;5.70;99.90;;;;;;5136780;27;20522;-73
2020/12/08 10:37:26;;;;;;;56.28;34.85;;;5.80;99.90;;;;;;5136767;27;20015;-72
2020/12/08 10:39:52;;;;;;;52.05;34.75;;;5.90;99.90;;;;;;5136584;27;20034;-71
2020/12/08 10:42:17;;;;;;;58.28;35.95;;;5.90;99.90;;;;;;5136471;27;20045;-71
2020/12/08 10:44:43;;;;;;;57.22;35.63;;;5.70;99.90;;;;;;5136157;27;20171;-71
2020/12/08 10:47:08;;;;;;;53.70;34.55;;;5.90;99.90;;;;;;5136206;27;20042;-72
2020/12/08 10:49:34;;;;;;;52.20;34.15;;;5.90;99.90;;;;;;5136173;27;20081;-72
2020/12/08 10:52:00;;;;;;;56.75;35.38;;;5.90;99.90;;;;;;5136049;27;20020;-71
2020/12/08 10:54:25;;;;;;;55.35;34.65;;;6.20;99.90;;;;;;5136128;27;20139;-70
2020/12/08 10:56:51;;;;;;;55.03;35.85;;;6.30;99.90;;;;;;5136031;27;20020;-71
2020/12/08 11:02:39;;;;;;;127.78;77.30;;;6.00;99.90;;;;;;5138154;27;20044;-71
2020/12/08 11:05:07;;;;;;;86.05;47.03;;;6.10;99.90;;;;;;5135785;27;20046;-72
2020/12/08 11:07:33;;;;;;;94.25;50.63;;;5.60;99.90;;;;;;5135800;27;20049;-72
2020/12/08 11:09:59;;;;;;;99.90;55.92;;;5.60;99.90;;;;;;5135994;27;20031;-72
2020/12/08 11:12:24;;;;;;;95.15;48.35;;;5.40;99.90;;;;;;5135639;27;20157;-71
2020/12/08 11:14:50;;;;;;;109.90;60.15;;;5.40;99.90;;;;;;5135668;27;20027;-71
2020/12/08 11:17:17;;;;;;;94.43;48.88;;;5.70;99.90;;;;;;5135829;27;20023;-71
2020/12/08 11:19:43;;;;;;;104.70;50.08;;;5.70;99.90;;;;;;5135743;27;20023;-72
2020/12/08 11:22:10;;;;;;;115.80;51.92;;;5.70;99.90;;;;;;5135718;27;20186;-72
2020/12/08 11:24:37;;;;;;;119.07;51.33;;;5.80;99.90;;;;;;5135676;27;20026;-72
2020/12/08 11:27:02;;;;;;;116.43;52.78;;;5.80;99.90;;;;;;5135772;27;20023;-72
2020/12/08 11:32:50;;;;;;;123.13;55.38;;;6.20;99.90;;;;;;5135347;27;20034;-71
2020/12/08 11:35:16;;;;;;;116.03;54.22;;;6.20;99.90;;;;;;5134272;27;20027;-70
2020/12/08 11:37:41;;;;;;;105.03;50.15;;;6.40;99.90;;;;;;5135298;27;20034;-71
2020/12/08 11:40:07;;;;;;;96.68;48.88;;;6.60;99.90;;;;;;5135181;27;20106;-71
2020/12/08 11:42:33;;;;;;;96.15;46.83;;;6.90;99.90;;;;;;5134688;27;20146;-71
2020/12/08 11:44:58;;;;;;;96.13;49.28;;;6.80;99.90;;;;;;5135005;27;20034;-69
2020/12/08 11:47:24;;;;;;;78.53;43.13;;;7.00;99.90;;;;;;5134812;27;20469;-70
2020/12/08 11:49:50;;;;;;;79.30;43.65;;;7.10;99.90;;;;;;5135011;27;20129;-70
2020/12/08 11:52:15;;;;;;;73.13;40.55;;;7.20;99.90;;;;;;5134754;27;20023;-68
2020/12/08 11:54:41;;;;;;;64.13;38.72;;;7.00;99.90;;;;;;5134639;27;20019;-71
2020/12/08 11:57:07;;;;;;;58.95;37.08;;;7.20;99.90;;;;;;5116345;27;20118;-72
2020/12/08 12:02:55;;;;;;;59.63;35.70;;;7.30;99.90;;;;;;5135947;27;20054;-68
2020/12/08 12:05:21;;;;;;;54.15;34.03;;;7.70;99.90;;;;;;5134544;27;20027;-71
2020/12/08 12:07:46;;;;;;;72.53;50.55;;;7.70;99.90;;;;;;5134509;27;20042;-72
2020/12/08 12:10:12;;;;;;;63.83;38.55;;;8.00;99.90;;;;;;5134713;27;20035;-69
2020/12/08 12:12:38;;;;;;;64.05;37.75;;;7.80;99.90;;;;;;5134039;27;20111;-72
2020/12/08 12:15:04;;;;;;;73.32;48.22;;;7.60;99.90;;;;;;5134344;27;20458;-70
2020/12/08 12:17:29;;;;;;;65.28;38.67;;;7.40;99.90;;;;;;5134413;27;20019;-71
2020/12/08 12:19:55;;;;;;;66.40;39.85;;;7.50;99.90;;;;;;5134553;27;20068;-71
2020/12/08 12:22:22;;;;;;;60.83;38.60;;;7.60;99.90;;;;;;5134190;27;20102;-70
2020/12/08 12:24:48;;;;;;;62.63;40.38;;;7.70;99.90;;;;;;5134427;27;20023;-69
2020/12/08 12:27:14;;;;;;;59.22;39.55;;;7.70;99.90;;;;;;5134197;27;20023;-72
2020/12/08 12:33:02;;;;;;;70.10;43.25;;;8.00;99.90;;;;;;5133990;27;20114;-73
2020/12/08 12:35:27;;;;;;;65.70;41.13;;;8.30;99.90;;;;;;5134462;27;20062;-73
2020/12/08 12:37:53;;;;;;;61.45;40.40;;;8.00;99.90;;;;;;5133914;27;20102;-74
2020/12/08 12:40:19;;;;;;;65.90;45.00;;;7.60;99.90;;;;;;5133911;27;20080;-71
2020/12/08 12:42:45;;;;;;;76.72;46.70;;;7.60;99.90;;;;;;5133990;27;20032;-72
2020/12/08 12:48:32;;;;;;;71.00;44.58;;;7.50;99.90;;;;;;5133987;27;20063;-71
2020/12/08 12:50:59;;;;;;;62.25;39.72;;;7.40;99.90;;;;;;5133702;27;20105;-71
2020/12/08 12:53:25;;;;;;;86.47;58.75;;;7.70;99.90;;;;;;5133678;27;20027;-70
2020/12/08 12:55:50;;;;;;;91.05;60.15;;;7.60;99.90;;;;;;5133635;27;20019;-71
2020/12/08 12:58:16;;;;;;;66.70;43.28;;;7.60;99.90;;;;;;5133872;27;20034;-72
2020/12/08 13:00:42;;;;;;;75.93;45.42;;;6.80;99.90;;;;;;5133610;27;20386;-70
2020/12/08 13:03:07;;;;;;;77.65;44.88;;;6.70;99.90;;;;;;5133229;27;20054;-71
2020/12/08 13:05:33;;;;;;;75.28;44.75;;;6.80;99.90;;;;;;5133795;27;20023;-72
2020/12/08 13:07:59;;;;;;;71.80;45.38;;;7.10;99.90;;;;;;5133584;27;20094;-72
2020/12/08 13:10:24;;;;;;;78.28;45.33;;;7.20;99.90;;;;;;5133436;27;20110;-73
2020/12/08 13:12:50;;;;;;;79.90;46.45;;;7.20;99.90;;;;;;5133747;27;20027;-72
2020/12/08 13:18:39;;;;;;;88.93;48.80;;;6.60;99.90;;;;;;5133821;27;20109;-73
2020/12/08 13:21:05;;;;;;;87.90;48.80;;;6.50;99.90;;;;;;5133361;27;20023;-72
2020/12/08 13:23:32;;;;;;;95.35;51.17;;;6.80;99.90;;;;;;5133553;27;20035;-73
2020/12/08 13:25:58;;;;;;;93.47;52.63;;;6.60;99.90;;;;;;5133422;28;20023;-73
2020/12/08 13:28:24;;;;;;;102.40;52.70;;;6.50;99.90;;;;;;5133206;28;20469;-70
2020/12/08 13:30:50;;;;;;;94.35;49.85;;;6.10;99.90;;;;;;5133379;28;20024;-71
2020/12/08 13:33:16;;;;;;;98.03;51.55;;;6.00;99.90;;;;;;5133373;28;20027;-70
2020/12/08 13:35:42;;;;;;;99.63;50.30;;;5.70;99.90;;;;;;5133536;28;20428;-70
2020/12/08 13:38:08;;;;;;;88.13;47.38;;;5.80;99.90;;;;;;5133362;28;20024;-71
2020/12/08 13:40:34;;;;;;;102.47;52.67;;;5.90;99.90;;;;;;5133472;28;20384;-71
2020/12/08 13:43:00;;;;;;;102.07;50.70;;;5.70;99.90;;;;;;5133296;28;20031;-72
2020/12/08 13:48:48;;;;;;;113.20;55.00;;;5.70;99.90;;;;;;5133331;28;20034;-72
2020/12/08 13:51:14;;;;;;;103.75;51.55;;;5.80;99.90;;;;;;5133216;28;20496;-71
2020/12/08 13:53:40;;;;;;;99.03;49.55;;;5.90;99.90;;;;;;5133473;28;20027;-71